Terminal Aerodrome Forecast
Issued by NWS

Current Version | Previous Version | Text Only | Print | Product List | Glossary On
Versions: 1 2 3 4 5 6 7 8 9 10 11 12 13 14 15 16 17 18 19 20
833
FTUS42 KMLB 011758 AAA
TAFSUA
TAF AMD
KSUA 011758Z 0118/0218 11012KT P6SM SCT025 SCT250
     FM020300 18005KT P6SM FEW030 BKN060
     FM020800 22004KT P6SM FEW030 BKN060
     FM021500 25007KT P6SM SCT030 BKN060=

USA.gov is the U.S. government's official web portal to all federal, state and local government web resources and services.